createdAt,value
2018-03-11T00:00:52.678Z,51.40
2018-03-11T00:03:21.387Z,51.40
2018-03-11T00:05:49.119Z,51.20
2018-03-11T00:08:16.857Z,51.50
2018-03-11T00:10:44.629Z,51.80
2018-03-11T00:13:12.410Z,51.70
2018-03-11T00:15:40.284Z,51.80
2018-03-11T00:18:08.779Z,52.00
2018-03-11T00:20:36.595Z,51.80
2018-03-11T00:23:04.397Z,52.20
2018-03-11T00:25:32.182Z,52.10
2018-03-11T00:27:59.951Z,51.90
2018-03-11T00:30:27.694Z,51.90
2018-03-11T00:32:55.440Z,52.30
2018-03-11T00:35:23.239Z,52.10
2018-03-11T00:37:50.980Z,51.90
2018-03-11T00:40:18.703Z,51.90
2018-03-11T00:42:46.418Z,52.10
2018-03-11T00:45:14.218Z,52.10
2018-03-11T00:47:42.017Z,52.20
2018-03-11T00:50:09.765Z,52.00
2018-03-11T00:52:37.548Z,52.00
2018-03-11T00:55:05.272Z,51.70
2018-03-11T00:57:33.006Z,51.80
2018-03-11T01:00:00.763Z,51.70
2018-03-11T01:02:28.549Z,51.70
2018-03-11T01:04:56.428Z,51.70
2018-03-11T01:07:24.170Z,51.80
2018-03-11T01:09:51.954Z,51.90
2018-03-11T01:12:19.748Z,51.90
2018-03-11T01:14:47.545Z,51.90
2018-03-11T01:17:15.289Z,51.80
2018-03-11T01:19:43.031Z,51.90
2018-03-11T01:22:10.802Z,51.80
2018-03-11T01:24:38.586Z,51.80
2018-03-11T01:27:06.427Z,51.90
2018-03-11T01:29:34.233Z,51.90
2018-03-11T01:32:02.709Z,52.00
2018-03-11T01:34:30.449Z,52.00
2018-03-11T01:36:58.203Z,51.90
2018-03-11T01:39:26.044Z,51.90
2018-03-11T01:41:53.768Z,52.00
2018-03-11T01:44:21.499Z,52.10
2018-03-11T01:46:49.284Z,52.10
2018-03-11T01:49:17.096Z,52.20
2018-03-11T01:51:44.848Z,52.10
2018-03-11T01:54:12.634Z,52.10
2018-03-11T01:56:40.407Z,52.30
2018-03-11T01:59:08.150Z,52.20
2018-03-11T02:01:36.026Z,52.20
2018-03-11T02:04:03.805Z,52.20
2018-03-11T02:06:31.535Z,52.30
2018-03-11T02:08:59.449Z,52.30
2018-03-11T02:11:27.204Z,52.50
2018-03-11T02:13:54.942Z,52.50
2018-03-11T02:16:22.690Z,52.50
2018-03-11T02:18:51.243Z,52.60
2018-03-11T02:21:19.002Z,52.50
2018-03-11T02:23:46.802Z,52.50
2018-03-11T02:26:14.536Z,52.60
2018-03-11T02:28:42.328Z,52.50
2018-03-11T02:31:10.050Z,52.40
2018-03-11T02:33:37.844Z,52.50
2018-03-11T02:36:05.582Z,52.50
2018-03-11T02:38:33.416Z,52.60
2018-03-11T02:41:01.165Z,52.50
2018-03-11T02:43:28.953Z,52.50
2018-03-11T02:45:56.751Z,52.60
2018-03-11T02:48:24.538Z,52.60
2018-03-11T02:50:52.301Z,52.70
2018-03-11T02:53:20.096Z,52.80
2018-03-11T02:55:48.645Z,52.80
2018-03-11T02:58:16.386Z,52.90
2018-03-11T03:00:44.121Z,52.90
2018-03-11T03:03:11.873Z,52.80
2018-03-11T03:05:39.605Z,52.90
2018-03-11T03:08:07.389Z,52.70
2018-03-11T03:10:35.158Z,52.80
2018-03-11T03:13:02.937Z,52.80
2018-03-11T03:15:30.847Z,53.60
2018-03-11T03:17:58.634Z,53.00
2018-03-11T03:20:26.479Z,53.00
2018-03-11T03:22:55.124Z,53.00
2018-03-11T03:25:22.924Z,53.00
2018-03-11T03:27:51.512Z,53.30
2018-03-11T03:30:19.293Z,53.30
2018-03-11T03:32:47.015Z,53.20
2018-03-11T03:35:14.848Z,53.20
2018-03-11T03:37:42.652Z,53.20
2018-03-11T03:40:10.445Z,53.20
2018-03-11T03:42:38.957Z,53.30
2018-03-11T03:45:06.712Z,53.30
2018-03-11T03:47:34.442Z,53.40
2018-03-11T03:50:02.158Z,53.50
2018-03-11T03:52:29.920Z,53.40
2018-03-11T03:54:57.709Z,53.40
2018-03-11T03:57:25.498Z,53.70
2018-03-11T03:59:53.216Z,53.60
2018-03-11T04:02:20.996Z,53.60
2018-03-11T04:04:48.738Z,53.60
2018-03-11T04:07:17.285Z,53.70
2018-03-11T04:09:45.086Z,53.70
2018-03-11T04:12:12.923Z,53.80
2018-03-11T04:14:40.669Z,53.90
2018-03-11T04:17:08.490Z,54.20
2018-03-11T04:19:37.090Z,54.40
2018-03-11T04:22:04.880Z,54.30
2018-03-11T04:24:32.658Z,54.80
2018-03-11T04:27:00.389Z,55.00
2018-03-11T04:29:28.191Z,55.00
2018-03-11T04:31:56.008Z,55.20
2018-03-11T04:34:24.630Z,55.40
2018-03-11T04:36:52.411Z,55.40
2018-03-11T04:39:20.145Z,55.40
2018-03-11T04:41:47.897Z,55.60
2018-03-11T04:44:15.688Z,55.50
2018-03-11T04:46:43.407Z,55.90
2018-03-11T04:49:11.173Z,55.80
2018-03-11T04:51:39.534Z,56.00
2018-03-11T04:54:07.289Z,56.00
2018-03-11T04:59:09.182Z,56.00
2018-03-11T05:01:37.022Z,55.90
2018-03-11T05:04:04.786Z,55.70
2018-03-11T05:06:32.527Z,55.40
2018-03-11T05:09:00.265Z,55.40
2018-03-11T05:11:28.012Z,55.40
2018-03-11T05:13:55.799Z,55.30
2018-03-11T05:16:23.573Z,55.10
2018-03-11T05:18:51.349Z,55.00
2018-03-11T05:21:19.153Z,54.70
2018-03-11T05:23:46.914Z,54.80
2018-03-11T05:26:14.663Z,54.70
2018-03-11T05:28:42.401Z,54.30
2018-03-11T05:31:10.238Z,54.30
2018-03-11T05:33:37.985Z,54.20
2018-03-11T05:36:05.737Z,54.30
2018-03-11T05:38:33.509Z,54.60
2018-03-11T05:41:01.293Z,53.90
2018-03-11T05:43:29.083Z,53.90
2018-03-11T05:45:56.837Z,53.90
2018-03-11T05:48:24.623Z,54.40
2018-03-11T05:50:52.373Z,53.80
2018-03-11T05:53:20.213Z,53.70
2018-03-11T05:55:48.011Z,53.50
2018-03-11T05:58:15.807Z,54.80
2018-03-11T06:00:43.554Z,54.10
2018-03-11T06:03:12.060Z,53.20
2018-03-11T06:05:39.846Z,53.90
2018-03-11T06:08:07.777Z,52.20
2018-03-11T06:10:35.599Z,52.50
2018-03-11T06:13:03.372Z,52.30
2018-03-11T06:15:31.110Z,52.80
2018-03-11T06:18:00.352Z,52.80
2018-03-11T06:20:28.093Z,52.80
2018-03-11T06:22:55.843Z,52.80
2018-03-11T06:25:23.571Z,53.00
2018-03-11T06:27:51.373Z,53.10
2018-03-11T06:30:19.166Z,53.40
2018-03-11T06:32:46.904Z,53.30
2018-03-11T06:35:14.811Z,53.40
2018-03-11T06:37:42.595Z,53.30
2018-03-11T06:40:10.352Z,53.30
2018-03-11T06:42:38.200Z,53.40
2018-03-11T06:45:05.996Z,53.50
2018-03-11T06:47:33.799Z,53.80
2018-03-11T06:50:01.610Z,53.90
2018-03-11T06:52:29.336Z,53.90
2018-03-11T06:54:57.075Z,54.10
2018-03-11T06:57:24.870Z,53.90
2018-03-11T06:59:52.643Z,54.20
2018-03-11T07:02:20.381Z,54.10
2018-03-11T07:04:48.278Z,54.30
2018-03-11T07:07:16.027Z,54.50
2018-03-11T07:09:43.788Z,54.20
2018-03-11T07:12:11.533Z,54.70
2018-03-11T07:14:39.258Z,54.70
2018-03-11T07:17:07.015Z,55.50
2018-03-11T07:19:34.910Z,54.40
2018-03-11T07:22:02.697Z,53.70
2018-03-11T07:24:30.461Z,54.80
2018-03-11T07:26:58.319Z,55.90
2018-03-11T07:29:26.161Z,53.50
2018-03-11T07:31:53.901Z,54.20
2018-03-11T07:34:21.640Z,53.50
2018-03-11T07:36:49.379Z,54.00
2018-03-11T07:39:17.101Z,55.30
2018-03-11T07:41:44.980Z,54.70
2018-03-11T07:44:12.713Z,54.90
2018-03-11T07:46:40.524Z,54.00
2018-03-11T07:49:09.013Z,54.30
2018-03-11T07:51:39.449Z,54.20
2018-03-11T07:54:08.027Z,55.20
2018-03-11T07:56:35.819Z,55.20
2018-03-11T07:59:03.582Z,54.60
2018-03-11T08:01:31.454Z,55.40
2018-03-11T08:03:59.246Z,56.90
2018-03-11T08:06:26.967Z,54.10
2018-03-11T08:08:55.520Z,52.70
2018-03-11T08:11:23.274Z,52.70
2018-03-11T08:13:51.133Z,53.30
2018-03-11T08:16:18.874Z,55.80
2018-03-11T08:18:46.657Z,54.00
2018-03-11T08:21:14.413Z,55.20
2018-03-11T08:23:42.255Z,52.80
2018-03-11T08:26:10.819Z,53.00
2018-03-11T08:28:38.590Z,52.90
2018-03-11T08:31:06.335Z,53.10
2018-03-11T08:33:34.120Z,52.90
2018-03-11T08:36:01.909Z,52.80
2018-03-11T08:38:29.696Z,53.60
2018-03-11T08:40:57.470Z,53.40
2018-03-11T08:43:25.307Z,53.50
2018-03-11T08:45:53.855Z,53.60
2018-03-11T08:48:21.720Z,53.50
2018-03-11T08:50:49.525Z,53.50
2018-03-11T08:53:18.064Z,55.20
2018-03-11T08:55:45.792Z,55.30
2018-03-11T08:58:16.226Z,54.10
2018-03-11T09:00:43.961Z,54.00
2018-03-11T09:03:13.665Z,56.10
2018-03-11T09:05:41.557Z,56.00
2018-03-11T09:08:10.010Z,56.60
2018-03-11T09:10:37.805Z,53.30
2018-03-11T09:13:06.304Z,54.30
2018-03-11T09:15:34.104Z,54.30
2018-03-11T09:18:02.693Z,57.10
2018-03-11T09:20:42.828Z,56.50
2018-03-11T09:23:11.695Z,52.60
2018-03-11T09:25:39.486Z,53.60
2018-03-11T09:28:07.209Z,56.30
2018-03-11T09:30:36.930Z,55.10
2018-03-11T09:33:04.733Z,51.90
2018-03-11T09:35:32.537Z,51.40
2018-03-11T09:38:00.450Z,52.30
2018-03-11T09:40:28.185Z,54.50
2018-03-11T09:42:55.998Z,55.40
2018-03-11T09:45:23.755Z,57.70
2018-03-11T09:47:51.493Z,53.80
2018-03-11T09:50:19.271Z,54.40
2018-03-11T09:52:47.894Z,55.50
2018-03-11T09:55:15.613Z,55.50
2018-03-11T09:57:51.373Z,56.10
2018-03-11T10:00:19.111Z,56.00
2018-03-11T10:02:46.905Z,53.60
2018-03-11T10:05:14.675Z,54.10
2018-03-11T10:07:42.411Z,54.70
2018-03-11T10:10:10.193Z,54.10
2018-03-11T10:12:38.505Z,57.70
2018-03-11T10:15:06.256Z,57.80
2018-03-11T10:17:34.013Z,56.10
2018-03-11T10:20:01.827Z,57.80
2018-03-11T10:22:29.569Z,56.70
2018-03-11T10:24:57.341Z,55.50
2018-03-11T10:27:25.163Z,53.90
2018-03-11T10:29:52.969Z,57.40
2018-03-11T10:32:20.763Z,53.00
2018-03-11T10:34:48.513Z,54.10
2018-03-11T10:37:16.314Z,54.60
2018-03-11T10:39:44.130Z,58.70
2018-03-11T10:42:12.660Z,57.50
2018-03-11T10:44:40.482Z,57.40
2018-03-11T10:47:08.291Z,56.40
2018-03-11T10:49:36.135Z,56.10
2018-03-11T10:52:04.145Z,54.40
2018-03-11T10:54:32.074Z,56.50
2018-03-11T10:57:00.001Z,56.50
2018-03-11T10:59:27.754Z,57.60
2018-03-11T11:02:01.510Z,53.90
2018-03-11T11:04:34.395Z,53.80
2018-03-11T11:07:02.928Z,55.70
2018-03-11T11:09:30.703Z,55.60
2018-03-11T11:11:58.483Z,53.90
2018-03-11T11:14:28.527Z,54.10
2018-03-11T11:16:57.110Z,56.60
2018-03-11T11:19:24.918Z,56.60
2018-03-11T11:21:53.083Z,52.10
2018-03-11T11:24:20.819Z,55.30
2018-03-11T11:26:49.482Z,53.30
2018-03-11T11:29:17.375Z,53.20
2018-03-11T11:31:45.235Z,55.10
2018-03-11T11:34:13.397Z,55.10
2018-03-11T11:36:41.355Z,53.30
2018-03-11T11:39:09.851Z,55.30
2018-03-11T11:41:37.652Z,55.10
2018-03-11T11:44:07.019Z,53.60
2018-03-11T11:46:35.636Z,53.60
2018-03-11T11:49:04.354Z,56.40
2018-03-11T11:51:32.318Z,56.40
2018-03-11T11:54:00.053Z,55.00
2018-03-11T11:56:28.476Z,53.10
2018-03-11T11:58:59.475Z,57.20
2018-03-11T12:01:27.311Z,56.40
2018-03-11T12:03:55.032Z,54.00
2018-03-11T12:06:25.599Z,56.30
2018-03-11T12:08:53.339Z,55.60
2018-03-11T12:11:21.962Z,53.00
2018-03-11T12:13:50.786Z,53.40
2018-03-11T12:16:18.507Z,53.30
2018-03-11T12:18:48.484Z,54.40
2018-03-11T12:21:17.349Z,57.00
2018-03-11T12:23:45.241Z,56.90
2018-03-11T12:26:13.764Z,55.40
2018-03-11T12:28:41.826Z,55.40
2018-03-11T12:31:09.559Z,55.80
2018-03-11T12:33:37.489Z,57.70
2018-03-11T12:36:05.284Z,56.30
2018-03-11T12:38:33.093Z,56.30
2018-03-11T12:41:00.956Z,56.60
2018-03-11T12:43:29.942Z,56.60
2018-03-11T12:45:57.722Z,56.20
2018-03-11T12:48:26.548Z,56.80
2018-03-11T12:50:55.252Z,57.90
2018-03-11T12:53:22.990Z,58.00
2018-03-11T12:55:51.641Z,57.30
2018-03-11T12:58:19.391Z,58.40
2018-03-11T13:00:47.155Z,58.00
2018-03-11T13:03:15.003Z,57.50
2018-03-11T13:05:42.793Z,56.70
2018-03-11T13:08:10.571Z,56.70
2018-03-11T13:10:39.480Z,56.00
2018-03-11T13:13:07.283Z,56.00
2018-03-11T13:15:35.087Z,55.50
2018-03-11T13:18:02.805Z,55.70
2018-03-11T13:20:42.270Z,55.40
2018-03-11T13:23:10.146Z,55.10
2018-03-11T13:25:37.929Z,55.00
2018-03-11T13:28:17.423Z,54.60
2018-03-11T13:30:45.151Z,53.30
2018-03-11T13:33:24.605Z,54.60
2018-03-11T13:35:52.358Z,54.60
2018-03-11T13:38:32.038Z,54.30
2018-03-11T13:40:59.910Z,54.20
2018-03-11T13:43:27.710Z,54.60
2018-03-11T13:46:07.465Z,54.60
2018-03-11T13:48:35.256Z,54.90
2018-03-11T13:51:03.072Z,54.90
2018-03-11T13:53:42.613Z,54.60
2018-03-11T13:56:10.417Z,54.50
2018-03-11T13:58:45.081Z,53.10
2018-03-11T14:01:12.856Z,54.20
2018-03-11T14:03:40.602Z,55.30
2018-03-11T14:06:08.397Z,54.90
2018-03-11T14:08:36.163Z,55.30
2018-03-11T14:11:03.900Z,56.40
2018-03-11T14:13:31.707Z,56.40
2018-03-11T14:15:59.450Z,55.00
2018-03-11T14:18:27.228Z,55.50
2018-03-11T14:20:55.042Z,55.30
2018-03-11T14:23:22.838Z,57.10
2018-03-11T14:25:51.674Z,55.70
2018-03-11T14:28:19.459Z,55.20
2018-03-11T14:30:48.313Z,57.80
2018-03-11T14:33:16.103Z,57.70
2018-03-11T14:35:43.886Z,56.10
2018-03-11T14:38:11.677Z,55.60
2018-03-11T14:40:39.505Z,55.90
2018-03-11T14:43:07.299Z,56.70
2018-03-11T14:45:35.850Z,56.90
2018-03-11T14:48:03.604Z,56.80
2018-03-11T14:50:31.343Z,56.20
2018-03-11T14:52:59.863Z,56.50
2018-03-11T14:55:27.631Z,56.40
2018-03-11T14:57:55.424Z,57.10
2018-03-11T15:00:23.191Z,57.00
2018-03-11T15:02:50.930Z,57.40
2018-03-11T15:05:18.743Z,58.90
2018-03-11T15:07:46.537Z,57.80
2018-03-11T15:10:14.274Z,58.40
2018-03-11T15:12:42.000Z,59.10
2018-03-11T15:15:09.743Z,60.00
2018-03-11T15:17:37.535Z,59.50
2018-03-11T15:20:06.275Z,58.40
2018-03-11T15:22:34.111Z,58.30
2018-03-11T15:25:02.098Z,58.80
2018-03-11T15:27:29.884Z,59.30
2018-03-11T15:29:58.445Z,57.80
2018-03-11T15:32:26.186Z,57.80
2018-03-11T15:34:56.168Z,57.70
2018-03-11T15:37:24.713Z,58.60
2018-03-11T15:39:53.052Z,58.20
2018-03-11T15:42:22.509Z,58.20
2018-03-11T15:44:50.470Z,58.10
2018-03-11T15:47:18.207Z,60.40
2018-03-11T15:49:46.198Z,58.60
2018-03-11T15:52:15.907Z,57.50
2018-03-11T15:54:44.733Z,57.20
2018-03-11T15:57:13.714Z,56.20
2018-03-11T15:59:43.590Z,57.70
2018-03-11T16:02:13.230Z,57.50
2018-03-11T16:04:41.203Z,57.40
2018-03-11T16:07:09.037Z,56.80
2018-03-11T16:09:36.818Z,57.20
2018-03-11T16:12:05.194Z,56.90
2018-03-11T16:14:35.337Z,57.70
2018-03-11T16:17:04.764Z,58.60
2018-03-11T16:19:33.187Z,57.10
2018-03-11T16:22:03.673Z,56.90
2018-03-11T16:24:39.616Z,57.00
2018-03-11T16:27:02.159Z,57.90
2018-03-11T16:29:30.809Z,57.20
2018-03-11T16:31:58.591Z,57.50
2018-03-11T16:34:26.578Z,58.20
2018-03-11T16:36:54.607Z,58.50
2018-03-11T16:39:22.377Z,58.90
2018-03-11T16:41:50.555Z,58.50
2018-03-11T16:44:19.987Z,58.60
2018-03-11T16:46:48.901Z,59.00
2018-03-11T16:49:16.975Z,59.60
2018-03-11T16:51:44.839Z,59.10
2018-03-11T16:54:12.593Z,58.80
2018-03-11T16:56:42.004Z,58.60
2018-03-11T16:59:09.972Z,59.00
2018-03-11T17:01:38.608Z,58.90
2018-03-11T17:04:06.835Z,59.20
2018-03-11T17:06:36.071Z,59.60
2018-03-11T17:09:03.877Z,60.10
2018-03-11T17:11:33.338Z,60.30
2018-03-11T17:14:01.077Z,61.20
2018-03-11T17:16:32.455Z,59.50
2018-03-11T17:19:00.275Z,61.60
2018-03-11T17:21:28.003Z,59.90
2018-03-11T17:23:55.785Z,59.00
2018-03-11T17:26:24.286Z,58.20
2018-03-11T17:28:52.095Z,58.20
2018-03-11T17:31:19.843Z,58.90
2018-03-11T17:33:47.624Z,57.70
2018-03-11T17:36:15.356Z,58.60
2018-03-11T17:38:44.319Z,57.80
2018-03-11T17:41:12.843Z,57.50
2018-03-11T17:43:41.048Z,57.70
2018-03-11T17:46:11.412Z,57.50
2018-03-11T17:48:40.150Z,57.10
2018-03-11T17:51:08.202Z,56.80
2018-03-11T17:53:39.040Z,55.90
2018-03-11T17:56:06.821Z,56.70
2018-03-11T17:58:34.638Z,56.50
2018-03-11T18:01:03.916Z,56.60
2018-03-11T18:03:31.716Z,57.40
2018-03-11T18:05:59.656Z,56.80
2018-03-11T18:08:32.126Z,56.50
2018-03-11T18:11:10.671Z,55.40
2018-03-11T18:13:38.500Z,55.40
2018-03-11T18:16:06.443Z,56.00
2018-03-11T18:18:34.220Z,55.60
2018-03-11T18:21:02.091Z,55.80
2018-03-11T18:23:31.771Z,56.20
2018-03-11T18:25:59.610Z,55.40
2018-03-11T18:28:27.367Z,55.50
2018-03-11T18:30:55.160Z,55.50
2018-03-11T18:33:26.059Z,55.50
2018-03-11T18:35:54.977Z,56.00
2018-03-11T18:38:22.979Z,55.90
2018-03-11T18:40:50.813Z,55.50
2018-03-11T18:43:19.943Z,55.40
2018-03-11T18:45:48.593Z,55.70
2018-03-11T18:48:17.364Z,55.60
2018-03-11T18:50:48.067Z,56.00
2018-03-11T18:53:16.707Z,55.80
2018-03-11T18:55:44.502Z,55.70
2018-03-11T18:58:12.344Z,55.40
2018-03-11T19:00:40.401Z,55.40
2018-03-11T19:03:08.199Z,55.30
2018-03-11T19:05:36.190Z,55.30
2018-03-11T19:08:04.010Z,55.40
2018-03-11T19:10:31.744Z,56.30
2018-03-11T19:12:59.632Z,57.00
2018-03-11T19:15:33.693Z,55.40
2018-03-11T19:18:01.467Z,56.40
2018-03-11T19:20:30.324Z,55.80
2018-03-11T19:23:03.360Z,54.90
2018-03-11T19:25:32.577Z,55.50
2018-03-11T19:28:01.465Z,55.90
2018-03-11T19:30:29.651Z,55.90
2018-03-11T19:32:57.444Z,56.10
2018-03-11T19:35:25.343Z,55.30
2018-03-11T19:37:53.086Z,55.20
2018-03-11T19:40:20.822Z,55.50
2018-03-11T19:42:49.378Z,55.70
2018-03-11T19:45:17.119Z,55.70
2018-03-11T19:47:49.139Z,57.00
2018-03-11T19:50:17.256Z,57.00
2018-03-11T19:52:45.658Z,56.00
2018-03-11T19:55:13.510Z,55.70
2018-03-11T19:57:41.341Z,55.00
2018-03-11T20:00:14.515Z,55.20
2018-03-11T20:02:42.456Z,55.90
2018-03-11T20:05:10.258Z,54.90
2018-03-11T20:07:38.096Z,55.20
2018-03-11T20:10:05.880Z,55.70
2018-03-11T20:12:33.643Z,55.80
2018-03-11T20:15:01.564Z,55.30
2018-03-11T20:17:29.847Z,54.90
2018-03-11T20:19:57.734Z,55.20
2018-03-11T20:22:26.901Z,54.90
2018-03-11T20:24:59.418Z,54.90
2018-03-11T20:27:34.629Z,55.30
2018-03-11T20:30:02.629Z,54.60
2018-03-11T20:32:35.341Z,54.70
2018-03-11T20:35:08.375Z,54.50
2018-03-11T20:37:36.826Z,54.20
2018-03-11T20:40:04.596Z,54.40
2018-03-11T20:42:33.682Z,54.30
2018-03-11T20:45:02.186Z,54.10
2018-03-11T20:47:30.078Z,54.10
2018-03-11T20:49:57.834Z,54.60
2018-03-11T20:52:29.806Z,55.10
2018-03-11T20:54:57.593Z,54.60
2018-03-11T20:57:29.738Z,54.00
2018-03-11T20:59:57.571Z,54.00
2018-03-11T21:02:26.127Z,54.10
2018-03-11T21:04:53.872Z,54.00
2018-03-11T21:07:25.985Z,54.50
2018-03-11T21:09:53.725Z,54.60
2018-03-11T21:12:25.671Z,53.90
2018-03-11T21:15:02.915Z,53.70
2018-03-11T21:17:31.411Z,53.50
2018-03-11T21:19:59.144Z,53.50
2018-03-11T21:22:26.965Z,53.40
2018-03-11T21:24:54.972Z,54.40
2018-03-11T21:27:22.776Z,53.10
2018-03-11T21:29:50.573Z,53.20
2018-03-11T21:32:18.308Z,54.10
2018-03-11T21:34:49.205Z,53.70
2018-03-11T21:37:19.350Z,53.70
2018-03-11T21:39:48.473Z,53.50
2018-03-11T21:42:16.976Z,54.30
2018-03-11T21:44:44.847Z,53.50
2018-03-11T21:47:12.601Z,53.30
2018-03-11T21:49:40.399Z,53.50
2018-03-11T21:52:08.194Z,54.30
2018-03-11T21:54:35.999Z,53.80
2018-03-11T21:57:03.732Z,54.00
2018-03-11T21:59:31.705Z,53.50
2018-03-11T22:01:59.730Z,52.90
2018-03-11T22:04:27.511Z,53.10
2018-03-11T22:06:55.311Z,52.90
2018-03-11T22:09:23.052Z,53.00
2018-03-11T22:11:51.580Z,52.90
2018-03-11T22:14:19.435Z,52.40
2018-03-11T22:16:47.179Z,52.60
2018-03-11T22:19:14.913Z,52.50
2018-03-11T22:21:42.698Z,53.10
2018-03-11T22:24:10.488Z,53.40
2018-03-11T22:26:38.262Z,53.40
2018-03-11T22:29:06.154Z,54.20
2018-03-11T22:31:33.953Z,52.70
2018-03-11T22:34:01.728Z,52.10
2018-03-11T22:36:29.609Z,51.80
2018-03-11T22:38:57.388Z,51.80
2018-03-11T22:41:25.171Z,51.90
2018-03-11T22:43:52.963Z,52.20
2018-03-11T22:46:21.548Z,53.40
2018-03-11T22:48:49.339Z,53.40
2018-03-11T22:51:17.197Z,52.70
2018-03-11T22:53:44.932Z,52.60
2018-03-11T22:56:13.363Z,53.40
2018-03-11T22:58:41.382Z,52.00
2018-03-11T23:01:09.490Z,52.50
2018-03-11T23:03:37.328Z,51.90
2018-03-11T23:06:05.198Z,52.10
2018-03-11T23:08:33.015Z,52.00
2018-03-11T23:11:00.849Z,51.20
2018-03-11T23:13:29.895Z,52.10
2018-03-11T23:15:57.845Z,52.00
2018-03-11T23:18:26.688Z,52.50
2018-03-11T23:20:54.473Z,51.90
2018-03-11T23:23:22.271Z,52.00
2018-03-11T23:25:50.051Z,52.40
2018-03-11T23:28:17.833Z,51.40
2018-03-11T23:30:45.603Z,51.60
2018-03-11T23:33:13.419Z,51.40
2018-03-11T23:35:41.130Z,51.60
2018-03-11T23:38:08.911Z,52.70
2018-03-11T23:40:37.576Z,51.40
2018-03-11T23:43:05.350Z,52.80
2018-03-11T23:45:33.086Z,52.20
2018-03-11T23:48:00.862Z,51.50
2018-03-11T23:50:28.653Z,51.30
2018-03-11T23:52:56.434Z,52.50
2018-03-11T23:55:24.240Z,52.10
2018-03-11T23:57:52.022Z,51.50
